aviador You're here:

KMPO Decoded Metar

MT. POCONO in PA, USA
Report Time2017-09-23 19:53:00
UTC Time2017-09-23 20:11:36
Flight Rules vfr VFR
Wind030° at 10 kt
W.Decomp.*RWY 05: 9.9 kt HW 1.2 kt LCW
RWY 13: 0.5 kt HW 10 kt LCW
W.Rank030° ranks 34
Current wind is above 030° avg. (6.6)
Visibility9999 m
Phenomena:N/A
Clouds:N/A
Expected CloudBase > 5,600 ft AGL from Temp-Dew spread
CeilingNone
Temp28°C (ISA +17)
Dew Point14°C (42% RH)
Heat Index27.8°C
AAT25.6°C
QNH1020 hPa
Density Alt3,799 ft
Elevation1,893 ft
Report Wrong Elevation
Raw Report
METAR KMPO 231953Z AUTO 03010KT 10SM CLR 28/14 A3011 RMK AO2 SLP187
T02780139=

Extra information for KMPO:More info

Metar Taf Metar & Taf Last 4 Metars F.Rules Stats Wind Profile Meteogram Temp Stats Airport Information Weather charts Add Link Nearby VenuesMetar ALERT Operation Metar Decoded Social comments

AIRNAV info for KMPO